Fort Mcpherson Airport
CZFM : now visible

Airfield :











YOU CAN JOIN US ON...

 
LOGIN :

Register | Disclaimer

   EN    FR    IT 

 









Legend :    VFR   Marginal VFR   IFR   Intensive IFR   Very Intensive IFR
Visi :
Ceiling :
>= 8 km
>= 3000ft
5 to 8 km
1000 to 3000 ft
1500m to 5 km
500 to 1000 ft
800 to 1500m
200 to 500 ft
< 800m
< 200 ft
Symbols :   Thunderstorms  Fog  Heavy snow  Heavy precipitations  Wind > 20 kt






- Airport Elevation : 116 ft
- IATA code : ZFM


CZFM - Fort Mcpherson

CURRENT METAR :
  • 251800Z 09005KT 060V200 35SM BKN240 13/02 A2965 RMK CS6 SLP044 DENSITY ALT 200FT

EXPIRED METARs :
  • 251700Z 11005KT 090V150 35SM FEW210 11/01 A2966 RMK CS3 SLP045
  • 251600Z 16004KT 120V190 35SM FEW220 10/01 A2966 RMK CS1 SLP045

TAF TAF CZFM
Valid from the 25 at 15:00 until the 25 at 23:00 UTC


251438Z 2515/2523 14005KT P6SM FEW180
FM251900 14005KT P6SM BKN080 RMK NXT FCST BY 251900Z
CZEG FIR / North America



MET'MAP, your aeronautical weather chart ! - Copyright ORBIFLY December 2007 - Disclaimer

ORBIFLY MET'MAP TEAM :

Programming & Development : Alexandra Zaïnal
Concept & original design : Baudouin d'Aumeries
Assistance for programming : Marc-Olivier Méhu
Technical & hardware support : Manuel Goepfert

Contact : metmap@orbifly.com




SOURCES & CREDITS :

   NOAA       Earth
Advisory